Time;durP1;ratioP1;P1;durP2;ratioP2;P2;SDS_P1;SDS_P2;PMS_P1;PMS_P2;Temp;Humidity;BMP_temperature;BMP_pressure;BME280_temperature;BME280_humidity;BME280_pressure;Samples;Min_cycle;Max_cycle;Signal;HPM_P1;HPM_P2
2023/11/25 00:00:52;;;;;;;6.38;3.35;;;2.90;99.90;;;;;;2015230;29;20027;-80
2023/11/25 00:01:53;;;;;;;7.18;3.90;;;2.80;99.90;;;;;;2009583;29;20025;-80
2023/11/25 00:02:54;;;;;;;6.53;3.58;;;2.80;99.90;;;;;;2010237;29;20124;-77
2023/11/25 00:03:54;;;;;;;4.85;3.60;;;2.80;99.90;;;;;;2007838;29;20040;-79
2023/11/25 00:04:55;;;;;;;6.18;3.85;;;2.70;99.90;;;;;;2007995;29;20021;-78
2023/11/25 00:05:55;;;;;;;5.28;3.30;;;2.60;99.90;;;;;;2010025;29;20029;-79
2023/11/25 00:06:56;;;;;;;4.57;3.50;;;2.60;99.90;;;;;;2006798;29;20120;-80
2023/11/25 00:07:57;;;;;;;4.50;3.15;;;2.50;99.90;;;;;;2008125;29;20022;-79
2023/11/25 00:08:57;;;;;;;5.18;3.47;;;2.40;99.90;;;;;;2007024;29;20057;-78
2023/11/25 00:09:58;;;;;;;4.13;3.28;;;2.40;99.90;;;;;;2008129;29;20065;-78
2023/11/25 00:10:59;;;;;;;4.25;3.00;;;2.40;99.90;;;;;;1992336;29;20090;-78
2023/11/25 00:12:00;;;;;;;4.72;2.60;;;2.40;99.90;;;;;;1993399;29;20267;-78
2023/11/25 00:13:01;;;;;;;3.78;1.63;;;2.30;99.90;;;;;;2005921;29;20234;-78
2023/11/25 00:14:02;;;;;;;4.13;1.75;;;2.20;99.90;;;;;;2014701;29;20326;-77
2023/11/25 00:15:03;;;;;;;2.67;1.60;;;2.20;99.90;;;;;;2013078;29;20045;-78
2023/11/25 00:16:07;;;;;;;2.15;1.42;;;2.20;99.90;;;;;;2008534;29;20041;-79
2023/11/25 00:17:08;;;;;;;2.72;1.70;;;2.10;99.90;;;;;;2008368;29;20476;-79
2023/11/25 00:18:10;;;;;;;3.15;1.17;;;2.10;99.90;;;;;;2008380;29;20065;-74
2023/11/25 00:19:10;;;;;;;2.85;1.15;;;2.10;99.90;;;;;;2015201;29;20123;-79
2023/11/25 00:20:11;;;;;;;2.72;1.40;;;2.10;99.90;;;;;;2008419;29;20033;-80
2023/11/25 00:21:12;;;;;;;3.60;1.50;;;2.10;99.90;;;;;;2001018;29;20048;-80
2023/11/25 00:22:12;;;;;;;3.58;1.50;;;2.10;99.90;;;;;;2004346;29;20056;-78
2023/11/25 00:23:13;;;;;;;2.80;1.42;;;2.10;99.90;;;;;;2010955;29;20571;-78
2023/11/25 00:24:14;;;;;;;3.50;1.50;;;2.00;99.90;;;;;;2018048;29;20526;-79
2023/11/25 00:25:15;;;;;;;3.85;1.30;;;2.00;99.90;;;;;;2014665;29;20088;-78
2023/11/25 00:26:15;;;;;;;4.35;1.27;;;2.00;99.90;;;;;;2007617;29;20033;-80
2023/11/25 00:27:27;;;;;;;3.38;1.33;;;2.00;99.90;;;;;;2006597;29;20630;-78
2023/11/25 00:28:28;;;;;;;3.75;1.25;;;2.00;99.90;;;;;;2008436;29;20026;-77
2023/11/25 00:29:28;;;;;;;2.33;1.30;;;2.00;99.90;;;;;;2005583;29;20040;-76
2023/11/25 00:30:29;;;;;;;2.70;1.23;;;2.00;99.90;;;;;;2004820;29;20064;-79
2023/11/25 00:31:30;;;;;;;2.60;1.40;;;2.00;99.90;;;;;;2007124;29;20501;-77
2023/11/25 00:32:36;;;;;;;2.63;1.20;;;2.00;99.90;;;;;;2010374;29;20031;-78
2023/11/25 00:33:37;;;;;;;2.47;1.10;;;2.00;99.90;;;;;;2007391;29;20067;-77
2023/11/25 00:34:37;;;;;;;5.38;1.20;;;1.90;99.90;;;;;;2008219;29;20484;-78
2023/11/25 00:35:38;;;;;;;4.20;1.20;;;1.90;99.90;;;;;;1999805;29;20409;-80
2023/11/25 00:36:39;;;;;;;3.17;1.20;;;1.90;99.90;;;;;;2002545;29;20099;-78
2023/11/25 00:37:40;;;;;;;2.92;1.10;;;1.90;99.90;;;;;;2006437;29;20026;-78
2023/11/25 00:38:41;;;;;;;4.40;1.45;;;1.90;99.90;;;;;;2009508;29;20124;-78
2023/11/25 00:39:42;;;;;;;2.70;1.10;;;1.90;99.90;;;;;;2009721;29;20520;-81
2023/11/25 00:40:42;;;;;;;4.65;1.30;;;1.90;99.90;;;;;;2007040;29;20109;-80
2023/11/25 00:41:43;;;;;;;2.45;1.20;;;1.90;99.90;;;;;;2006054;29;20054;-76
2023/11/25 00:42:44;;;;;;;4.43;1.30;;;1.90;99.90;;;;;;2005919;29;20671;-76
2023/11/25 00:43:44;;;;;;;3.95;1.20;;;1.90;99.90;;;;;;2006280;29;20048;-81
2023/11/25 00:44:45;;;;;;;2.75;1.27;;;1.90;99.90;;;;;;2006787;29;20181;-78
2023/11/25 00:45:46;;;;;;;3.20;1.30;;;1.80;99.90;;;;;;2009858;29;20484;-77
2023/11/25 00:46:47;;;;;;;2.25;1.23;;;1.90;99.90;;;;;;2006157;29;20523;-76
2023/11/25 00:47:47;;;;;;;2.70;1.15;;;1.90;99.90;;;;;;1998947;29;20034;-78
2023/11/25 00:48:48;;;;;;;6.70;1.40;;;1.90;99.90;;;;;;2016810;29;20186;-76
2023/11/25 00:49:49;;;;;;;3.38;1.30;;;1.90;99.90;;;;;;2008058;29;20571;-77
2023/11/25 00:50:49;;;;;;;2.75;1.40;;;1.90;99.90;;;;;;2007624;29;20053;-77
2023/11/25 00:51:50;;;;;;;3.88;1.60;;;1.90;99.90;;;;;;2010151;29;20060;-78
2023/11/25 00:52:50;;;;;;;3.88;1.60;;;1.90;99.90;;;;;;2008049;29;20529;-80
2023/11/25 00:53:51;;;;;;;3.38;1.58;;;1.90;99.90;;;;;;2009133;29;20022;-77
2023/11/25 00:54:52;;;;;;;3.10;1.70;;;1.90;99.90;;;;;;2011952;29;20037;-79
2023/11/25 00:55:52;;;;;;;4.07;1.60;;;1.90;99.90;;;;;;2015649;29;20037;-78
2023/11/25 00:56:53;;;;;;;3.70;1.90;;;1.90;99.90;;;;;;2015830;29;20029;-80
2023/11/25 00:57:54;;;;;;;2.65;1.70;;;1.90;99.90;;;;;;2014000;29;20033;-77
2023/11/25 00:58:54;;;;;;;2.92;1.80;;;1.90;99.90;;;;;;2010291;29;20032;-78
2023/11/25 00:59:55;;;;;;;2.60;1.92;;;1.90;99.90;;;;;;2011249;29;20025;-79
2023/11/25 01:00:55;;;;;;;4.45;1.95;;;1.90;99.90;;;;;;2007930;29;20439;-77
2023/11/25 01:01:56;;;;;;;2.22;1.75;;;1.90;99.90;;;;;;2017490;29;20048;-78
2023/11/25 01:02:57;;;;;;;2.58;1.80;;;1.90;99.90;;;;;;2019950;29;20040;-78
2023/11/25 01:03:57;;;;;;;4.22;1.80;;;1.90;99.90;;;;;;2008667;29;20048;-79
2023/11/25 01:04:58;;;;;;;5.05;2.00;;;2.00;99.90;;;;;;2007837;29;20057;-78
2023/11/25 01:05:59;;;;;;;4.68;2.00;;;2.00;99.90;;;;;;2008603;29;20042;-81
2023/11/25 01:07:00;;;;;;;4.68;2.10;;;1.90;99.90;;;;;;2008982;29;20568;-79
2023/11/25 01:08:00;;;;;;;3.63;2.42;;;2.00;99.90;;;;;;2004957;29;20045;-78
2023/11/25 01:09:01;;;;;;;5.63;1.95;;;1.90;99.90;;;;;;2009886;29;20041;-77
2023/11/25 01:10:03;;;;;;;3.35;2.22;;;2.00;99.90;;;;;;2007072;29;20473;-77
2023/11/25 01:11:05;;;;;;;5.90;2.42;;;2.00;99.90;;;;;;2009887;29;20090;-78
2023/11/25 01:12:07;;;;;;;5.82;2.42;;;2.00;99.90;;;;;;2009528;29;20038;-78
2023/11/25 01:13:07;;;;;;;3.70;2.25;;;2.00;99.90;;;;;;2000656;29;20034;-78
2023/11/25 01:14:08;;;;;;;4.25;2.30;;;2.00;99.90;;;;;;2008270;29;20039;-77
2023/11/25 01:15:12;;;;;;;4.38;2.42;;;2.00;99.90;;;;;;2007149;29;20453;-78
2023/11/25 01:16:16;;;;;;;4.20;2.40;;;2.00;99.90;;;;;;1997918;29;20128;-78
2023/11/25 01:17:16;;;;;;;6.32;2.28;;;2.00;99.90;;;;;;2006702;29;20049;-77
2023/11/25 01:18:18;;;;;;;4.40;2.40;;;2.00;99.90;;;;;;2005624;29;20025;-77
2023/11/25 01:19:19;;;;;;;4.57;2.58;;;2.00;99.90;;;;;;2001843;29;20032;-77
2023/11/25 01:20:20;;;;;;;5.20;2.40;;;2.00;99.90;;;;;;2006529;29;20543;-79
2023/11/25 01:21:20;;;;;;;3.05;2.40;;;2.00;99.90;;;;;;2007806;29;20492;-78
2023/11/25 01:22:21;;;;;;;3.80;2.40;;;2.00;99.90;;;;;;2004916;29;20132;-79
2023/11/25 01:23:22;;;;;;;4.90;2.50;;;1.90;99.90;;;;;;2004484;29;20034;-80
2023/11/25 01:24:23;;;;;;;4.40;2.45;;;1.90;99.90;;;;;;2000025;29;20095;-80
2023/11/25 01:25:24;;;;;;;3.25;2.25;;;1.90;99.90;;;;;;2003514;29;20233;-80
2023/11/25 01:26:24;;;;;;;4.50;2.40;;;1.90;99.90;;;;;;2003634;29;20735;-79
2023/11/25 01:27:25;;;;;;;5.47;2.50;;;1.90;99.90;;;;;;2001795;29;20032;-80
2023/11/25 01:28:25;;;;;;;3.03;2.30;;;1.90;99.90;;;;;;2000094;29;20118;-80
2023/11/25 01:29:26;;;;;;;3.28;2.28;;;1.90;99.90;;;;;;2004409;29;20104;-80
2023/11/25 01:30:27;;;;;;;4.93;2.50;;;1.90;99.90;;;;;;2005118;29;20098;-77
2023/11/25 01:31:27;;;;;;;5.55;2.45;;;1.90;99.90;;;;;;2006281;29;20030;-81
2023/11/25 01:32:28;;;;;;;5.75;2.55;;;1.80;99.90;;;;;;2007949;29;20033;-78
2023/11/25 01:33:28;;;;;;;4.63;2.70;;;1.80;99.90;;;;;;2004721;29;20033;-76
2023/11/25 01:34:29;;;;;;;5.30;2.63;;;1.90;99.90;;;;;;2002761;29;20160;-76
2023/11/25 01:35:29;;;;;;;4.97;2.60;;;1.90;99.90;;;;;;2003069;29;20050;-74
2023/11/25 01:36:30;;;;;;;5.75;2.65;;;1.90;99.90;;;;;;2005959;29;20468;-75
2023/11/25 01:37:30;;;;;;;5.55;2.40;;;2.00;99.90;;;;;;1998869;29;20322;-76
2023/11/25 01:38:31;;;;;;;6.03;2.70;;;1.90;99.90;;;;;;1998605;29;20083;-76
2023/11/25 01:39:32;;;;;;;5.03;2.58;;;1.90;99.90;;;;;;1995966;29;20333;-76
2023/11/25 01:40:32;;;;;;;4.50;2.60;;;1.90;99.90;;;;;;1997305;29;20171;-75
2023/11/25 01:41:33;;;;;;;3.85;2.20;;;1.90;99.90;;;;;;2003396;29;20078;-75
2023/11/25 01:42:34;;;;;;;4.40;2.50;;;1.90;99.90;;;;;;2001489;29;20037;-75
2023/11/25 01:43:35;;;;;;;5.57;2.50;;;1.90;99.90;;;;;;2004936;29;20369;-76
2023/11/25 01:44:35;;;;;;;6.00;2.25;;;1.90;99.90;;;;;;1997457;29;20513;-76
2023/11/25 01:45:37;;;;;;;5.13;2.63;;;1.90;99.90;;;;;;1995191;29;20124;-76
2023/11/25 01:46:38;;;;;;;5.00;2.60;;;1.90;99.90;;;;;;2001084;29;20025;-76
2023/11/25 01:47:39;;;;;;;5.05;2.55;;;2.00;99.90;;;;;;2003655;29;20033;-76
2023/11/25 01:48:40;;;;;;;5.07;2.40;;;2.00;99.90;;;;;;2003470;29;20493;-77
2023/11/25 01:49:42;;;;;;;4.85;2.78;;;2.00;99.90;;;;;;2004904;29;20055;-77
2023/11/25 01:50:45;;;;;;;5.97;2.50;;;1.90;99.90;;;;;;1995897;29;20502;-77
2023/11/25 01:51:46;;;;;;;4.97;2.50;;;1.90;99.90;;;;;;2002113;29;20085;-77
2023/11/25 01:52:50;;;;;;;5.05;2.60;;;1.90;99.90;;;;;;2004584;29;20084;-76
2023/11/25 01:53:52;;;;;;;6.65;2.83;;;1.90;99.90;;;;;;2004350;29;20129;-76
2023/11/25 01:54:53;;;;;;;4.10;2.88;;;2.00;99.90;;;;;;1997506;29;20034;-77
2023/11/25 01:55:54;;;;;;;5.88;2.80;;;1.90;99.90;;;;;;2001053;29;20154;-77
2023/11/25 01:56:58;;;;;;;8.90;2.70;;;2.00;99.90;;;;;;2011072;29;20062;-77
2023/11/25 01:57:59;;;;;;;5.88;3.25;;;1.90;99.90;;;;;;2004369;29;21108;-78
2023/11/25 01:59:04;;;;;;;6.65;2.88;;;2.00;99.90;;;;;;2003737;29;20075;-78
2023/11/25 02:00:07;;;;;;;6.13;3.03;;;2.00;99.90;;;;;;2003377;29;20053;-77
2023/11/25 02:01:12;;;;;;;5.65;3.10;;;2.00;99.90;;;;;;2003349;29;20482;-75
2023/11/25 02:02:15;;;;;;;5.30;2.80;;;2.00;99.90;;;;;;2005126;29;20559;-77
2023/11/25 02:03:16;;;;;;;6.45;3.08;;;1.90;99.90;;;;;;2001471;29;20078;-77
2023/11/25 02:04:17;;;;;;;5.07;2.85;;;1.90;99.90;;;;;;2005276;29;20030;-75
2023/11/25 02:05:18;;;;;;;5.88;3.08;;;1.90;99.90;;;;;;1997846;29;20489;-76
2023/11/25 02:06:19;;;;;;;4.85;2.85;;;2.00;99.90;;;;;;1996249;29;20033;-76
2023/11/25 02:07:21;;;;;;;6.47;2.90;;;2.00;99.90;;;;;;1999862;29;20418;-76
2023/11/25 02:08:22;;;;;;;7.05;2.88;;;2.00;99.90;;;;;;1996455;29;20126;-78
2023/11/25 02:09:24;;;;;;;6.20;2.83;;;2.00;99.90;;;;;;2003985;29;20124;-73
2023/11/25 02:10:25;;;;;;;5.78;3.08;;;2.10;99.90;;;;;;2007220;29;20062;-74
2023/11/25 02:11:25;;;;;;;7.03;3.13;;;2.10;99.90;;;;;;2003413;29;20454;-74
2023/11/25 02:12:26;;;;;;;6.13;2.83;;;2.00;99.90;;;;;;2004717;29;20420;-77
2023/11/25 02:13:27;;;;;;;6.03;2.80;;;2.00;99.90;;;;;;2003326;29;20065;-83
2023/11/25 02:14:28;;;;;;;7.10;2.92;;;2.00;99.90;;;;;;1995804;29;20557;-80
2023/11/25 02:15:30;;;;;;;4.82;3.10;;;2.00;99.90;;;;;;1996277;29;20038;-79
2023/11/25 02:16:31;;;;;;;6.72;2.85;;;2.00;99.90;;;;;;1988048;29;20409;-79
2023/11/25 02:17:32;;;;;;;5.28;3.10;;;2.00;99.90;;;;;;1988624;29;20035;-79
2023/11/25 02:18:32;;;;;;;5.55;2.97;;;2.00;99.90;;;;;;1998487;29;20042;-79
2023/11/25 02:19:33;;;;;;;6.75;3.17;;;2.00;99.90;;;;;;1997492;29;20065;-79
2023/11/25 02:20:36;;;;;;;6.45;3.08;;;2.00;99.90;;;;;;1989833;29;20630;-77
2023/11/25 02:21:40;;;;;;;6.80;2.92;;;2.00;99.90;;;;;;1991601;29;20030;-79
2023/11/25 02:23:19;;;;;;;6.70;3.30;;;2.00;99.90;;;;;;2001968;29;20037;-79
2023/11/25 02:24:21;;;;;;;5.25;2.83;;;2.00;99.90;;;;;;1991658;29;20471;-81
2023/11/25 02:25:22;;;;;;;7.85;3.40;;;2.00;99.90;;;;;;1996500;29;20040;-78
2023/11/25 02:26:23;;;;;;;5.15;3.15;;;2.00;99.90;;;;;;2003629;29;20150;-77
2023/11/25 02:27:25;;;;;;;7.95;3.20;;;2.00;99.90;;;;;;1995883;29;20509;-79
2023/11/25 02:28:26;;;;;;;7.93;3.40;;;2.00;99.90;;;;;;1997081;29;20049;-79
2023/11/25 02:29:28;;;;;;;7.60;3.30;;;2.10;99.90;;;;;;1993031;29;20110;-79
2023/11/25 02:30:28;;;;;;;6.22;3.28;;;2.10;99.90;;;;;;1994842;29;20026;-79
2023/11/25 02:31:29;;;;;;;6.63;3.40;;;2.10;99.90;;;;;;2004907;29;20534;-79
2023/11/25 02:32:29;;;;;;;6.93;3.83;;;2.10;99.90;;;;;;2002729;29;20116;-79
2023/11/25 02:33:34;;;;;;;8.50;3.50;;;2.00;99.90;;;;;;2004448;29;20094;-80
2023/11/25 02:34:35;;;;;;;9.80;3.70;;;2.00;99.90;;;;;;1996924;29;20105;-80
2023/11/25 02:35:35;;;;;;;6.60;3.55;;;2.10;99.90;;;;;;1996021;29;20117;-79
2023/11/25 02:36:38;;;;;;;10.05;3.60;;;2.00;99.90;;;;;;1998178;29;20033;-79
2023/11/25 02:37:38;;;;;;;7.40;3.60;;;2.00;99.90;;;;;;1996822;29;20044;-80
2023/11/25 02:38:39;;;;;;;8.80;3.70;;;2.10;99.90;;;;;;1996157;29;20068;-78
2023/11/25 02:39:39;;;;;;;7.57;3.55;;;2.10;99.90;;;;;;1995414;29;20030;-78
2023/11/25 02:40:44;;;;;;;6.93;3.30;;;2.10;99.90;;;;;;1994756;29;20052;-80
2023/11/25 02:41:49;;;;;;;6.75;3.22;;;2.10;99.90;;;;;;2004161;29;20094;-78
2023/11/25 02:42:50;;;;;;;5.63;3.13;;;2.10;99.90;;;;;;1996859;29;20025;-79
2023/11/25 02:43:51;;;;;;;6.03;2.97;;;2.10;99.90;;;;;;1996610;29;20098;-79
2023/11/25 02:44:52;;;;;;;6.55;2.92;;;2.10;99.90;;;;;;2004121;29;20117;-78
2023/11/25 02:45:52;;;;;;;7.32;3.10;;;2.10;99.90;;;;;;1995356;29;20126;-78
2023/11/25 02:46:53;;;;;;;5.78;3.00;;;2.10;99.90;;;;;;1991900;29;20034;-79
2023/11/25 02:47:54;;;;;;;6.43;3.25;;;2.00;99.90;;;;;;2003370;29;20032;-79
2023/11/25 02:48:55;;;;;;;6.30;3.03;;;2.00;99.90;;;;;;2005313;29;20070;-78
2023/11/25 02:49:56;;;;;;;6.97;2.92;;;2.00;99.90;;;;;;2010829;29;20069;-78
2023/11/25 02:50:57;;;;;;;6.07;3.30;;;2.00;99.90;;;;;;2012363;29;20037;-78
2023/11/25 02:51:59;;;;;;;6.78;2.70;;;2.00;99.90;;;;;;2014570;29;20045;-79
2023/11/25 02:52:59;;;;;;;6.18;2.97;;;2.00;99.90;;;;;;2004657;29;20180;-78
2023/11/25 02:54:00;;;;;;;7.50;3.08;;;2.00;99.90;;;;;;2004396;29;20033;-79
2023/11/25 02:55:01;;;;;;;7.20;3.30;;;2.00;99.90;;;;;;1995910;29;20034;-80
2023/11/25 02:56:01;;;;;;;7.95;3.00;;;2.00;99.90;;;;;;1997943;29;20378;-79
2023/11/25 02:57:02;;;;;;;7.72;3.53;;;2.00;99.90;;;;;;2004307;29;20026;-79
2023/11/25 02:58:02;;;;;;;11.30;3.10;;;2.00;99.90;;;;;;2003882;29;20124;-79
2023/11/25 02:59:03;;;;;;;8.57;3.10;;;2.00;99.90;;;;;;1998164;29;20583;-79
2023/11/25 03:00:10;;;;;;;7.55;3.13;;;2.00;99.90;;;;;;1995061;29;20068;-80
2023/11/25 03:01:13;;;;;;;6.30;3.03;;;2.00;99.90;;;;;;2006102;29;20568;-79
2023/11/25 03:02:15;;;;;;;9.25;3.13;;;2.00;99.90;;;;;;2004834;29;20045;-79
2023/11/25 03:03:22;;;;;;;5.28;3.00;;;2.00;99.90;;;;;;2004722;29;20083;-80
2023/11/25 03:04:23;;;;;;;6.25;2.92;;;2.00;99.90;;;;;;2004427;29;20557;-78
2023/11/25 03:05:25;;;;;;;7.40;2.92;;;2.00;99.90;;;;;;1996060;29;20045;-79
2023/11/25 03:06:26;;;;;;;6.18;2.90;;;2.00;99.90;;;;;;1996079;29;20042;-79
2023/11/25 03:07:30;;;;;;;6.88;2.60;;;2.00;99.90;;;;;;1996309;29;20030;-80
2023/11/25 03:08:30;;;;;;;7.93;2.90;;;2.00;99.90;;;;;;2007700;29;20040;-80
2023/11/25 03:09:31;;;;;;;5.18;2.75;;;2.00;99.90;;;;;;1998424;29;20026;-80
2023/11/25 03:10:31;;;;;;;5.40;2.83;;;2.00;99.90;;;;;;1997907;29;20060;-79
2023/11/25 03:11:32;;;;;;;5.75;2.83;;;2.00;99.90;;;;;;1993913;29;20079;-79
2023/11/25 03:12:32;;;;;;;6.82;2.90;;;2.00;99.90;;;;;;1999225;29;20026;-82
2023/11/25 03:13:33;;;;;;;6.07;2.83;;;2.00;99.90;;;;;;2003872;29;20049;-80
2023/11/25 03:14:35;;;;;;;11.18;2.75;;;2.00;99.90;;;;;;2007443;29;20419;-81
2023/11/25 03:15:35;;;;;;;5.13;2.60;;;2.00;99.90;;;;;;2004658;29;20036;-79
2023/11/25 03:16:36;;;;;;;8.05;2.78;;;2.00;99.90;;;;;;2005314;29;20040;-80
2023/11/25 03:17:37;;;;;;;7.20;2.88;;;2.00;99.90;;;;;;2004386;29;20052;-79
2023/11/25 03:18:37;;;;;;;7.60;2.65;;;2.00;99.90;;;;;;2007610;29;20699;-80
2023/11/25 03:19:38;;;;;;;5.85;2.60;;;2.00;99.90;;;;;;2006061;29;20026;-77
2023/11/25 03:20:39;;;;;;;8.07;2.88;;;2.00;99.90;;;;;;2007073;29;20560;-76
2023/11/25 03:21:43;;;;;;;6.75;2.85;;;2.00;99.90;;;;;;2004898;29;20510;-80
2023/11/25 03:22:46;;;;;;;7.35;2.80;;;2.00;99.90;;;;;;2003935;29;20089;-79
2023/11/25 03:23:47;;;;;;;6.90;2.95;;;2.00;99.90;;;;;;2003816;29;20037;-79
2023/11/25 03:24:48;;;;;;;5.10;2.58;;;2.00;99.90;;;;;;2004536;29;20034;-79
2023/11/25 03:25:49;;;;;;;7.32;2.83;;;2.00;99.90;;;;;;2004106;29;20113;-79
2023/11/25 03:26:50;;;;;;;6.60;2.63;;;2.00;99.90;;;;;;2007942;29;20033;-79
2023/11/25 03:27:51;;;;;;;4.57;2.67;;;2.00;99.90;;;;;;2003773;29;20477;-80
2023/11/25 03:28:52;;;;;;;7.88;3.00;;;2.00;99.90;;;;;;2004080;29;20085;-78
2023/11/25 03:29:52;;;;;;;6.07;2.63;;;2.00;99.90;;;;;;2010892;29;20048;-79
2023/11/25 03:30:54;;;;;;;5.55;2.80;;;2.10;99.90;;;;;;2003598;29;20059;-80
2023/11/25 03:31:56;;;;;;;6.78;2.75;;;2.10;99.90;;;;;;2000182;29;20033;-80
2023/11/25 03:32:56;;;;;;;6.13;2.70;;;2.00;99.90;;;;;;1995933;29;20480;-80
2023/11/25 03:33:57;;;;;;;8.23;3.13;;;2.00;99.90;;;;;;2003757;29;20061;-80
2023/11/25 03:34:58;;;;;;;7.57;3.00;;;2.10;99.90;;;;;;2011313;29;20033;-78
2023/11/25 03:35:58;;;;;;;6.65;2.80;;;2.00;99.90;;;;;;2014415;29;20224;-80
2023/11/25 03:36:59;;;;;;;7.47;2.90;;;2.00;99.90;;;;;;2003986;29;20041;-78
2023/11/25 03:37:59;;;;;;;9.32;2.80;;;2.00;99.90;;;;;;2003516;29;20053;-80
2023/11/25 03:39:00;;;;;;;6.22;3.08;;;2.00;99.90;;;;;;2006804;29;20168;-78
2023/11/25 03:40:01;;;;;;;6.38;3.00;;;2.00;99.90;;;;;;2007233;29;20044;-80
2023/11/25 03:41:02;;;;;;;8.85;3.00;;;2.00;99.90;;;;;;2004575;29;20030;-79
2023/11/25 03:42:04;;;;;;;8.45;2.60;;;2.10;99.90;;;;;;2007354;29;20409;-80
2023/11/25 03:43:05;;;;;;;6.00;2.65;;;2.10;99.90;;;;;;2007153;29;20489;-80
2023/11/25 03:44:06;;;;;;;7.40;3.00;;;2.00;99.90;;;;;;2007956;29;20025;-79
2023/11/25 03:45:07;;;;;;;8.05;2.78;;;2.00;99.90;;;;;;2005929;29;20111;-80
2023/11/25 03:46:09;;;;;;;4.90;2.42;;;2.00;99.90;;;;;;2008697;29;20370;-79
2023/11/25 03:47:10;;;;;;;7.30;2.60;;;2.00;99.90;;;;;;1996608;29;20393;-80
2023/11/25 03:48:10;;;;;;;7.00;2.60;;;2.10;99.90;;;;;;1992541;29;20120;-79
2023/11/25 03:49:12;;;;;;;9.68;2.75;;;2.10;99.90;;;;;;2006729;29;20112;-80
2023/11/25 03:50:13;;;;;;;4.47;2.55;;;2.10;99.90;;;;;;2009563;29;20029;-79
2023/11/25 03:51:15;;;;;;;4.80;2.35;;;2.10;99.90;;;;;;2004133;29;20030;-79
2023/11/25 03:52:15;;;;;;;6.10;2.30;;;2.10;99.90;;;;;;1997482;29;20033;-79
2023/11/25 03:53:18;;;;;;;7.70;2.33;;;2.10;99.90;;;;;;1997671;29;20078;-79
2023/11/25 03:54:18;;;;;;;6.13;2.70;;;2.10;99.90;;;;;;1998118;29;20096;-81
2023/11/25 03:55:19;;;;;;;6.95;2.50;;;2.10;99.90;;;;;;1997725;29;20022;-80
2023/11/25 03:56:21;;;;;;;5.70;2.60;;;2.10;99.90;;;;;;2005351;29;20045;-80
2023/11/25 03:57:21;;;;;;;7.30;2.58;;;2.10;99.90;;;;;;2008678;29;20051;-79
2023/11/25 03:58:22;;;;;;;8.52;2.70;;;2.10;99.90;;;;;;2000582;29;20051;-79
2023/11/25 03:59:24;;;;;;;5.45;2.60;;;2.10;99.90;;;;;;1994022;29;20034;-80
2023/11/25 04:00:25;;;;;;;6.28;2.38;;;2.10;99.90;;;;;;2001190;29;20473;-80
2023/11/25 04:01:26;;;;;;;6.57;2.55;;;2.10;99.90;;;;;;1994509;29;20042;-77
2023/11/25 04:02:26;;;;;;;7.05;2.75;;;2.10;99.90;;;;;;2006128;29;20094;-79
2023/11/25 04:03:27;;;;;;;5.20;2.58;;;2.10;99.90;;;;;;2010529;29;20060;-80
2023/11/25 04:04:28;;;;;;;5.40;2.60;;;2.10;99.90;;;;;;2006097;29;20128;-80
2023/11/25 04:05:28;;;;;;;8.27;2.72;;;2.10;99.90;;;;;;2006557;29;20105;-79
2023/11/25 04:06:30;;;;;;;11.35;3.13;;;2.10;99.90;;;;;;2006310;29;20097;-78
2023/11/25 04:07:30;;;;;;;5.65;2.70;;;2.10;99.90;;;;;;2006695;29;20121;-79
2023/11/25 04:08:35;;;;;;;9.05;2.70;;;2.20;99.90;;;;;;2008961;29;20592;-80
2023/11/25 04:09:35;;;;;;;6.50;2.70;;;2.20;99.90;;;;;;2005148;29;20641;-80
2023/11/25 04:10:36;;;;;;;7.13;2.70;;;2.20;99.90;;;;;;2009004;29;20033;-81
2023/11/25 04:11:41;;;;;;;6.88;2.70;;;2.20;99.90;;;;;;2004828;29;20029;-79
2023/11/25 04:12:43;;;;;;;8.30;2.80;;;2.20;99.90;;;;;;2005271;29;20534;-80
2023/11/25 04:13:44;;;;;;;7.55;2.80;;;2.20;99.90;;;;;;2005674;29;20054;-78
2023/11/25 04:14:44;;;;;;;5.60;2.65;;;2.20;99.90;;;;;;2005889;29;20600;-80
2023/11/25 04:15:46;;;;;;;7.50;2.97;;;2.20;99.90;;;;;;2005695;29;20059;-80
2023/11/25 04:16:47;;;;;;;6.75;2.88;;;2.20;99.90;;;;;;2005860;29;20528;-80
2023/11/25 04:17:48;;;;;;;9.93;2.65;;;2.20;99.90;;;;;;2005082;29;20034;-79
2023/11/25 04:18:49;;;;;;;9.40;2.83;;;2.20;99.90;;;;;;2004925;29;20508;-80
2023/11/25 04:19:50;;;;;;;7.03;2.78;;;2.20;99.90;;;;;;2000606;29;20110;-78
2023/11/25 04:20:51;;;;;;;8.07;2.90;;;2.20;99.90;;;;;;1997441;29;20398;-78
2023/11/25 04:21:53;;;;;;;7.75;2.70;;;2.20;99.90;;;;;;1989520;29;20026;-79
2023/11/25 04:22:54;;;;;;;8.60;2.63;;;2.20;99.90;;;;;;2002022;29;20045;-80
2023/11/25 04:23:55;;;;;;;6.90;2.97;;;2.20;99.90;;;;;;2008853;29;20055;-79
2023/11/25 04:24:56;;;;;;;10.27;3.22;;;2.20;99.90;;;;;;2009270;29;20029;-79
2023/11/25 04:25:56;;;;;;;9.70;2.72;;;2.20;99.90;;;;;;2005020;29;20045;-78
2023/11/25 04:26:57;;;;;;;8.88;2.90;;;2.20;99.90;;;;;;2012385;29;20049;-79
2023/11/25 04:27:58;;;;;;;8.23;2.83;;;2.20;99.90;;;;;;2008136;29;20040;-79
2023/11/25 04:28:58;;;;;;;10.43;2.95;;;2.20;99.90;;;;;;2001097;29;20098;-80
2023/11/25 04:29:59;;;;;;;9.18;3.13;;;2.20;99.90;;;;;;2005522;29;20042;-79
2023/11/25 04:30:59;;;;;;;10.13;3.20;;;2.20;99.90;;;;;;2005574;29;20029;-79
2023/11/25 04:32:00;;;;;;;9.68;2.95;;;2.20;99.90;;;;;;2005827;29;20033;-76
2023/11/25 04:33:01;;;;;;;8.20;3.10;;;2.20;99.90;;;;;;2006975;29;20084;-80
2023/11/25 04:34:01;;;;;;;7.32;2.90;;;2.20;99.90;;;;;;2008412;29;20063;-80
2023/11/25 04:35:04;;;;;;;8.82;2.92;;;2.20;99.90;;;;;;2004819;29;20033;-79
2023/11/25 04:36:06;;;;;;;10.30;3.00;;;2.20;99.90;;;;;;2004573;29;20421;-78
2023/11/25 04:37:06;;;;;;;9.32;2.90;;;2.20;99.90;;;;;;2004871;29;20113;-79
2023/11/25 04:38:07;;;;;;;9.35;3.00;;;2.30;99.90;;;;;;2004940;29;20413;-79
2023/11/25 04:39:10;;;;;;;7.80;2.92;;;2.20;99.90;;;;;;2004565;29;20082;-80
2023/11/25 04:40:12;;;;;;;7.40;3.05;;;2.20;99.90;;;;;;2004866;29;20034;-79
2023/11/25 04:41:12;;;;;;;8.02;2.83;;;2.30;99.90;;;;;;2005512;29;20026;-79
2023/11/25 04:42:13;;;;;;;8.38;2.83;;;2.20;99.90;;;;;;2006165;29;20404;-79
2023/11/25 04:43:14;;;;;;;7.07;3.05;;;2.20;99.90;;;;;;2004791;29;20455;-79
2023/11/25 04:44:14;;;;;;;8.43;2.88;;;2.20;99.90;;;;;;2007628;29;20090;-80
2023/11/25 04:45:16;;;;;;;8.60;2.78;;;2.20;99.90;;;;;;1999032;29;20030;-79
2023/11/25 04:46:16;;;;;;;7.65;3.15;;;2.20;99.90;;;;;;2001376;29;20037;-80
2023/11/25 04:47:17;;;;;;;12.55;3.10;;;2.30;99.90;;;;;;2005220;29;20597;-79
2023/11/25 04:48:19;;;;;;;6.50;2.70;;;2.30;99.90;;;;;;2004964;29;20647;-77
2023/11/25 04:49:21;;;;;;;8.10;2.88;;;2.30;99.90;;;;;;2005783;29;20021;-79
2023/11/25 04:50:26;;;;;;;9.23;3.13;;;2.30;99.90;;;;;;2005371;29;20041;-79
2023/11/25 04:51:28;;;;;;;11.27;3.33;;;2.30;99.90;;;;;;2003693;29;20108;-81
2023/11/25 04:52:29;;;;;;;9.02;2.85;;;2.30;99.90;;;;;;2009258;29;20308;-79
2023/11/25 04:53:29;;;;;;;10.00;2.85;;;2.30;99.90;;;;;;2005617;29;20037;-77
2023/11/25 04:54:30;;;;;;;12.27;3.40;;;2.30;99.90;;;;;;2010406;29;20026;-79
2023/11/25 04:55:31;;;;;;;9.80;3.28;;;2.30;99.90;;;;;;2007839;29;20025;-79
2023/11/25 04:56:31;;;;;;;9.38;2.75;;;2.30;99.90;;;;;;2008185;29;20416;-79
2023/11/25 04:57:32;;;;;;;7.90;3.08;;;2.30;99.90;;;;;;2007938;29;20029;-79
2023/11/25 04:58:33;;;;;;;9.77;2.90;;;2.30;99.90;;;;;;2008590;29;20113;-79
2023/11/25 04:59:35;;;;;;;8.60;3.08;;;2.30;99.90;;;;;;2001101;29;20037;-77
2023/11/25 05:00:36;;;;;;;9.63;3.05;;;2.30;99.90;;;;;;2007029;29;20101;-79
2023/11/25 05:01:37;;;;;;;10.80;3.15;;;2.40;99.90;;;;;;2008973;29;20041;-79
2023/11/25 05:02:38;;;;;;;8.75;3.30;;;2.30;99.90;;;;;;2003904;29;20037;-78
2023/11/25 05:03:40;;;;;;;8.38;2.88;;;2.30;99.90;;;;;;2007825;29;20069;-78
2023/11/25 05:04:40;;;;;;;9.63;3.05;;;2.30;99.90;;;;;;2006917;29;20084;-79
2023/11/25 05:05:41;;;;;;;8.13;3.33;;;2.30;99.90;;;;;;2009233;29;20693;-79
2023/11/25 05:06:43;;;;;;;13.18;3.38;;;2.30;99.90;;;;;;2007870;29;20572;-80
2023/11/25 05:07:44;;;;;;;9.35;3.53;;;2.40;99.90;;;;;;2010596;29;20515;-79
2023/11/25 05:08:45;;;;;;;7.53;3.00;;;2.30;99.90;;;;;;2008403;29;20124;-80
2023/11/25 05:09:46;;;;;;;11.43;3.92;;;2.30;99.90;;;;;;2001674;29;20121;-79
2023/11/25 05:10:48;;;;;;;11.00;3.60;;;2.30;99.90;;;;;;2003182;29;20112;-80
2023/11/25 05:11:48;;;;;;;9.60;3.58;;;2.30;99.90;;;;;;1997106;29;20075;-80
2023/11/25 05:12:50;;;;;;;10.20;3.72;;;2.30;99.90;;;;;;2007581;29;20062;-79
2023/11/25 05:13:51;;;;;;;11.60;4.22;;;2.30;99.90;;;;;;2008628;29;20053;-80
2023/11/25 05:14:51;;;;;;;10.85;3.80;;;2.30;99.90;;;;;;2005585;29;20128;-80
2023/11/25 05:15:53;;;;;;;6.93;3.55;;;2.30;99.90;;;;;;2011577;29;20041;-77
2023/11/25 05:16:55;;;;;;;9.15;3.92;;;2.30;99.90;;;;;;2009283;29;20030;-77
2023/11/25 05:17:56;;;;;;;9.80;3.95;;;2.30;99.90;;;;;;2010424;29;20026;-79
2023/11/25 05:18:57;;;;;;;8.93;4.25;;;2.30;99.90;;;;;;2014085;29;20049;-79
2023/11/25 05:19:57;;;;;;;9.93;4.43;;;2.30;99.90;;;;;;2013140;29;20572;-79
2023/11/25 05:20:58;;;;;;;11.23;4.40;;;2.30;99.90;;;;;;2010163;29;20026;-79
2023/11/25 05:21:58;;;;;;;10.07;4.30;;;2.30;99.90;;;;;;2009594;29;20134;-80
2023/11/25 05:22:59;;;;;;;12.40;4.82;;;2.30;99.90;;;;;;2012050;29;20039;-78